Time;durP1;ratioP1;P1;durP2;ratioP2;P2;SDS_P1;SDS_P2;PMS_P1;PMS_P2;Temp;Humidity;BMP_temperature;BMP_pressure;BME280_temperature;BME280_humidity;BME280_pressure;Samples;Min_cycle;Max_cycle;Signal;HPM_P1;HPM_P2
2024/04/10 00:01:29;;;;;;;3.10;1.55;;;;;;;;;;5401601;26;20008;-64
2024/04/10 00:03:56;;;;;;;3.83;1.48;;;;;;;;;;5410630;26;20033;-64
2024/04/10 00:06:24;;;;;;;3.95;1.50;;;;;;;;;;5407961;26;20004;-63
2024/04/10 00:08:51;;;;;;;5.43;1.73;;;;;;;;;;5409853;26;20009;-63
2024/04/10 00:11:21;;;;;;;2.22;1.30;;;;;;;;;;5411583;26;20036;-64
2024/04/10 00:13:49;;;;;;;3.95;1.45;;;;;;;;;;5403222;26;20017;-64
2024/04/10 00:16:17;;;;;;;3.25;1.33;;;;;;;;;;5405921;26;20004;-64
2024/04/10 00:18:45;;;;;;;5.82;1.67;;;;;;;;;;5407704;26;20459;-64
2024/04/10 00:21:12;;;;;;;2.90;1.38;;;;;;;;;;5405930;26;20042;-64
2024/04/10 00:23:40;;;;;;;3.17;1.80;;;;;;;;;;5411510;26;20035;-64
2024/04/10 00:26:07;;;;;;;3.58;1.70;;;;;;;;;;5409451;26;20024;-64
2024/04/10 00:28:34;;;;;;;4.68;1.52;;;;;;;;;;5404521;26;20018;-63
2024/04/10 00:31:05;;;;;;;3.38;1.33;;;;;;;;;;5390668;26;20014;-63
2024/04/10 00:33:32;;;;;;;2.90;1.50;;;;;;;;;;5405131;26;20008;-63
2024/04/10 00:36:03;;;;;;;2.10;1.27;;;;;;;;;;5407441;26;20014;-63
2024/04/10 00:38:32;;;;;;;4.82;1.60;;;;;;;;;;5405593;26;20011;-63
2024/04/10 00:40:59;;;;;;;3.97;1.33;;;;;;;;;;5404221;26;20679;-63
2024/04/10 00:43:27;;;;;;;3.55;1.50;;;;;;;;;;5405598;26;20411;-63
2024/04/10 00:45:58;;;;;;;2.72;1.17;;;;;;;;;;5405867;26;20039;-63
2024/04/10 00:48:25;;;;;;;3.58;1.63;;;;;;;;;;5396868;26;20004;-63
2024/04/10 00:50:53;;;;;;;4.40;1.63;;;;;;;;;;5409448;26;20471;-63
2024/04/10 00:53:20;;;;;;;3.63;1.40;;;;;;;;;;5401350;26;20017;-63
2024/04/10 00:55:48;;;;;;;3.00;1.63;;;;;;;;;;5402906;26;20008;-63
2024/04/10 00:58:15;;;;;;;3.50;1.70;;;;;;;;;;5405196;26;20007;-63
2024/04/10 01:00:43;;;;;;;3.10;1.30;;;;;;;;;;5403125;26;20007;-63
2024/04/10 01:03:10;;;;;;;2.30;1.40;;;;;;;;;;5406986;26;20023;-63
2024/04/10 01:05:37;;;;;;;3.78;1.50;;;;;;;;;;5406770;26;20000;-63
2024/04/10 01:08:05;;;;;;;2.95;1.45;;;;;;;;;;5412491;26;20027;-63
2024/04/10 01:10:33;;;;;;;3.25;1.15;;;;;;;;;;5394802;26;20464;-63
2024/04/10 01:13:02;;;;;;;2.50;1.65;;;;;;;;;;5405894;26;20008;-63
2024/04/10 01:15:30;;;;;;;3.78;1.48;;;;;;;;;;5406572;26;20000;-63
2024/04/10 01:17:57;;;;;;;5.72;1.70;;;;;;;;;;5407884;26;20007;-63
2024/04/10 01:20:25;;;;;;;3.83;1.58;;;;;;;;;;5401905;26;20007;-63
2024/04/10 01:22:52;;;;;;;3.78;1.35;;;;;;;;;;5403851;26;20007;-64
2024/04/10 01:25:19;;;;;;;3.92;1.30;;;;;;;;;;5403739;26;20363;-63
2024/04/10 01:27:46;;;;;;;2.15;1.17;;;;;;;;;;5407438;26;20018;-63
2024/04/10 01:30:13;;;;;;;2.20;1.17;;;;;;;;;;5404443;26;20017;-63
2024/04/10 01:32:41;;;;;;;2.65;1.10;;;;;;;;;;5409713;26;20007;-63
2024/04/10 01:35:08;;;;;;;2.33;1.20;;;;;;;;;;5404582;26;20338;-63
2024/04/10 01:37:35;;;;;;;3.28;1.15;;;;;;;;;;5383983;26;20011;-63
2024/04/10 01:40:02;;;;;;;2.55;1.23;;;;;;;;;;5401900;26;20899;-63
2024/04/10 01:42:30;;;;;;;1.80;1.08;;;;;;;;;;5402604;26;20021;-63
2024/04/10 01:44:57;;;;;;;2.58;1.35;;;;;;;;;;5408951;26;20043;-63
2024/04/10 01:47:24;;;;;;;2.28;1.23;;;;;;;;;;5402101;26;20003;-63
2024/04/10 01:49:51;;;;;;;3.88;1.40;;;;;;;;;;5408596;26;20047;-63
2024/04/10 01:52:19;;;;;;;2.42;1.40;;;;;;;;;;5396754;26;20013;-63
2024/04/10 01:54:46;;;;;;;5.03;1.48;;;;;;;;;;5400134;26;20018;-63
2024/04/10 01:57:14;;;;;;;2.13;1.42;;;;;;;;;;5381902;20;20030;-62
2024/04/10 01:59:41;;;;;;;2.85;1.45;;;;;;;;;;5366633;26;20023;-61
2024/04/10 02:02:08;;;;;;;2.28;1.40;;;;;;;;;;5368438;26;20727;-61
2024/04/10 02:04:35;;;;;;;3.03;1.33;;;;;;;;;;5354079;26;20022;-61
2024/04/10 02:07:04;;;;;;;2.30;1.20;;;;;;;;;;5366340;26;20004;-61
2024/04/10 02:09:31;;;;;;;2.88;1.40;;;;;;;;;;5367695;26;20008;-61
2024/04/10 02:11:59;;;;;;;2.17;1.40;;;;;;;;;;5371499;26;20004;-61
2024/04/10 02:14:28;;;;;;;3.63;1.30;;;;;;;;;;5372033;26;20023;-61
2024/04/10 02:16:56;;;;;;;3.85;1.48;;;;;;;;;;5370617;26;20015;-62
2024/04/10 02:19:23;;;;;;;2.95;1.52;;;;;;;;;;5368885;26;20314;-61
2024/04/10 02:21:52;;;;;;;2.75;1.38;;;;;;;;;;5369211;26;20783;-61
2024/04/10 02:24:20;;;;;;;2.90;1.33;;;;;;;;;;5365925;26;20018;-61
2024/04/10 02:26:47;;;;;;;1.85;1.20;;;;;;;;;;5368964;26;20008;-61
2024/04/10 02:29:14;;;;;;;3.03;1.30;;;;;;;;;;5375263;26;20036;-61
2024/04/10 02:31:42;;;;;;;2.40;1.33;;;;;;;;;;5374988;26;20010;-61
2024/04/10 02:34:09;;;;;;;2.53;1.33;;;;;;;;;;5374650;26;20036;-61
2024/04/10 02:36:36;;;;;;;2.85;1.05;;;;;;;;;;5371007;26;20022;-61
2024/04/10 02:39:04;;;;;;;2.60;1.25;;;;;;;;;;5374555;26;20089;-58
2024/04/10 02:41:31;;;;;;;2.85;1.27;;;;;;;;;;5364778;26;20044;-58
2024/04/10 02:43:58;;;;;;;3.45;1.50;;;;;;;;;;5364964;26;20083;-58
2024/04/10 02:46:26;;;;;;;2.70;1.08;;;;;;;;;;5373893;26;20040;-58
2024/04/10 02:48:53;;;;;;;2.33;1.17;;;;;;;;;;5373516;26;20028;-58
2024/04/10 02:51:21;;;;;;;2.45;1.30;;;;;;;;;;5374334;26;20022;-58
2024/04/10 02:53:49;;;;;;;2.90;1.38;;;;;;;;;;5371626;26;20013;-58
2024/04/10 02:56:16;;;;;;;3.08;1.20;;;;;;;;;;5369194;26;20479;-58
2024/04/10 02:58:45;;;;;;;1.75;1.20;;;;;;;;;;5355038;26;20004;-58
2024/04/10 03:01:12;;;;;;;1.90;1.00;;;;;;;;;;5368419;26;20044;-58
2024/04/10 03:03:39;;;;;;;2.13;1.10;;;;;;;;;;5367536;26;20008;-58
2024/04/10 03:06:07;;;;;;;1.98;1.15;;;;;;;;;;5366726;26;20014;-58
2024/04/10 03:08:37;;;;;;;2.53;1.20;;;;;;;;;;5371021;26;20008;-58
2024/04/10 03:11:05;;;;;;;2.10;1.02;;;;;;;;;;5369962;26;20027;-58
2024/04/10 03:13:33;;;;;;;2.15;1.13;;;;;;;;;;5371529;26;20442;-58
2024/04/10 03:16:00;;;;;;;1.65;0.93;;;;;;;;;;5370533;26;20513;-61
2024/04/10 03:18:28;;;;;;;2.55;1.08;;;;;;;;;;5372386;26;20459;-61
2024/04/10 03:20:55;;;;;;;1.63;1.00;;;;;;;;;;5366710;26;20008;-61
2024/04/10 03:23:23;;;;;;;1.77;1.20;;;;;;;;;;5363898;26;20008;-60
2024/04/10 03:25:59;;;;;;;1.80;0.80;;;;;;;;;;5347697;26;20350;-62
2024/04/10 03:28:26;;;;;;;1.20;0.70;;;;;;;;;;5368905;26;20009;-61
2024/04/10 03:30:54;;;;;;;1.52;1.00;;;;;;;;;;5370566;26;20448;-61
2024/04/10 03:33:22;;;;;;;2.20;1.00;;;;;;;;;;5347607;26;20009;-61
2024/04/10 03:35:49;;;;;;;2.35;1.10;;;;;;;;;;5372717;26;20008;-61
2024/04/10 03:38:16;;;;;;;1.23;1.05;;;;;;;;;;5371733;26;20356;-61
2024/04/10 03:40:44;;;;;;;1.73;1.05;;;;;;;;;;5372774;26;20019;-61
2024/04/10 03:43:12;;;;;;;1.83;0.93;;;;;;;;;;5370769;26;20004;-61
2024/04/10 03:45:40;;;;;;;2.40;1.10;;;;;;;;;;5370837;26;20005;-61
2024/04/10 03:48:08;;;;;;;1.27;0.90;;;;;;;;;;5373235;26;20052;-61
2024/04/10 03:50:35;;;;;;;1.30;0.95;;;;;;;;;;5370192;26;20015;-61
2024/04/10 03:53:02;;;;;;;1.40;1.00;;;;;;;;;;5373817;26;20030;-61
2024/04/10 03:55:29;;;;;;;1.58;0.80;;;;;;;;;;5370194;26;20012;-61
2024/04/10 03:57:57;;;;;;;1.10;0.80;;;;;;;;;;5367838;26;20015;-61
2024/04/10 04:00:24;;;;;;;1.70;0.98;;;;;;;;;;5373677;26;20027;-62
2024/04/10 04:02:51;;;;;;;2.03;1.00;;;;;;;;;;5366362;26;20022;-61
2024/04/10 04:05:18;;;;;;;2.67;1.00;;;;;;;;;;5369572;26;20004;-61
2024/04/10 04:07:45;;;;;;;1.88;1.25;;;;;;;;;;5375714;26;20005;-61
2024/04/10 04:10:13;;;;;;;1.50;1.20;;;;;;;;;;5368097;26;20012;-61
2024/04/10 04:12:40;;;;;;;2.33;0.88;;;;;;;;;;5371244;26;20016;-61
2024/04/10 04:15:08;;;;;;;1.67;0.80;;;;;;;;;;5363247;26;20022;-61
2024/04/10 04:17:35;;;;;;;1.30;0.85;;;;;;;;;;5370455;26;20345;-61
2024/04/10 04:20:03;;;;;;;2.20;0.90;;;;;;;;;;5373094;26;20683;-61
2024/04/10 04:22:31;;;;;;;1.67;0.60;;;;;;;;;;5373056;26;21096;-62
2024/04/10 04:24:58;;;;;;;1.65;1.00;;;;;;;;;;5369880;26;20917;-61
2024/04/10 04:27:32;;;;;;;2.45;0.90;;;;;;;;;;5369416;26;20008;-61
2024/04/10 04:29:59;;;;;;;1.98;1.00;;;;;;;;;;5372494;26;20015;-61
2024/04/10 04:32:26;;;;;;;1.45;0.82;;;;;;;;;;5374336;26;20008;-61
2024/04/10 04:34:54;;;;;;;1.50;0.65;;;;;;;;;;5369087;26;20022;-61
2024/04/10 04:37:21;;;;;;;1.92;1.10;;;;;;;;;;5369447;26;20481;-61
2024/04/10 04:39:48;;;;;;;2.28;1.00;;;;;;;;;;5372883;26;20008;-61
2024/04/10 04:42:16;;;;;;;1.30;0.68;;;;;;;;;;5366896;26;20972;-61
2024/04/10 04:44:43;;;;;;;1.75;1.05;;;;;;;;;;5368809;26;20022;-61
2024/04/10 04:47:10;;;;;;;2.17;1.02;;;;;;;;;;5371914;26;20008;-61
2024/04/10 04:49:37;;;;;;;1.75;0.90;;;;;;;;;;5364288;26;20012;-61
2024/04/10 04:52:05;;;;;;;1.00;0.80;;;;;;;;;;5366391;26;20024;-61
2024/04/10 04:54:32;;;;;;;2.17;0.90;;;;;;;;;;5372800;26;20004;-61
2024/04/10 04:56:59;;;;;;;1.00;0.73;;;;;;;;;;5371825;26;20008;-61
2024/04/10 04:59:27;;;;;;;1.30;0.95;;;;;;;;;;5371958;26;20008;-61
2024/04/10 05:01:54;;;;;;;1.67;0.90;;;;;;;;;;5370865;26;20008;-61
2024/04/10 05:07:08;;;;;;;2.03;0.80;;;;;;;;;;5371574;26;20016;-62
2024/04/10 05:09:35;;;;;;;1.67;0.85;;;;;;;;;;5370157;26;20451;-61
2024/04/10 05:12:02;;;;;;;1.13;0.65;;;;;;;;;;5372971;26;20040;-62
2024/04/10 05:14:30;;;;;;;1.45;0.80;;;;;;;;;;5353895;26;20364;-62
2024/04/10 05:16:57;;;;;;;1.65;1.00;;;;;;;;;;5373469;26;20019;-62
2024/04/10 05:19:25;;;;;;;1.67;0.93;;;;;;;;;;5374234;26;20028;-62
2024/04/10 05:21:53;;;;;;;1.85;0.70;;;;;;;;;;5370506;26;20000;-62
2024/04/10 05:24:23;;;;;;;3.40;1.02;;;;;;;;;;5373110;26;20008;-62
2024/04/10 05:26:50;;;;;;;1.92;0.80;;;;;;;;;;5373830;26;20014;-61
2024/04/10 05:29:17;;;;;;;1.60;0.95;;;;;;;;;;5372517;26;20018;-61
2024/04/10 05:31:45;;;;;;;3.00;1.00;;;;;;;;;;5369384;26;20011;-62
2024/04/10 05:34:12;;;;;;;2.00;0.90;;;;;;;;;;5372055;26;20026;-62
2024/04/10 05:36:39;;;;;;;1.50;1.08;;;;;;;;;;5366702;26;20008;-61
2024/04/10 05:39:06;;;;;;;2.03;0.90;;;;;;;;;;5369009;26;20024;-61
2024/04/10 05:41:34;;;;;;;1.90;0.93;;;;;;;;;;5371288;26;20008;-62
2024/04/10 05:44:01;;;;;;;1.80;0.90;;;;;;;;;;5372760;26;20012;-61
2024/04/10 05:46:28;;;;;;;1.83;0.80;;;;;;;;;;5370362;26;20022;-61
2024/04/10 05:48:55;;;;;;;1.30;0.98;;;;;;;;;;5373994;26;20485;-61
2024/04/10 05:51:23;;;;;;;1.98;1.02;;;;;;;;;;5373797;26;20008;-61
2024/04/10 05:53:50;;;;;;;1.20;0.90;;;;;;;;;;5372919;26;20008;-62
2024/04/10 05:56:17;;;;;;;1.48;0.80;;;;;;;;;;5373346;26;21047;-61
2024/04/10 05:58:44;;;;;;;2.42;1.00;;;;;;;;;;5373511;26;20361;-61
2024/04/10 06:01:12;;;;;;;2.10;0.80;;;;;;;;;;5372938;26;20376;-58
2024/04/10 06:03:39;;;;;;;6.82;1.70;;;;;;;;;;5368001;26;20008;-57
2024/04/10 06:06:12;;;;;;;4.90;1.30;;;;;;;;;;5373654;26;20040;-58
2024/04/10 06:08:40;;;;;;;3.80;1.23;;;;;;;;;;5370952;26;20459;-58
2024/04/10 06:11:07;;;;;;;2.83;1.23;;;;;;;;;;5371651;26;20333;-58
2024/04/10 06:13:34;;;;;;;4.95;1.63;;;;;;;;;;5354941;26;20009;-58
2024/04/10 06:16:02;;;;;;;6.60;1.67;;;;;;;;;;5366352;26;20036;-58
2024/04/10 06:18:30;;;;;;;4.45;1.50;;;;;;;;;;5358910;26;20353;-58
2024/04/10 06:21:04;;;;;;;7.65;2.35;;;;;;;;;;5369859;26;20018;-58
2024/04/10 06:23:33;;;;;;;4.68;1.95;;;;;;;;;;5374478;26;20000;-58
2024/04/10 06:26:00;;;;;;;6.00;1.85;;;;;;;;;;5367876;26;20018;-58
2024/04/10 06:28:28;;;;;;;5.22;2.33;;;;;;;;;;5372632;26;20344;-58
2024/04/10 06:31:02;;;;;;;7.90;2.15;;;;;;;;;;5367831;26;20955;-59
2024/04/10 06:33:29;;;;;;;6.88;1.85;;;;;;;;;;5370343;26;20019;-58
2024/04/10 06:36:03;;;;;;;9.27;2.47;;;;;;;;;;5370190;26;20449;-58
2024/04/10 06:38:31;;;;;;;6.78;2.05;;;;;;;;;;5365705;26;20008;-58
2024/04/10 06:40:59;;;;;;;6.82;2.28;;;;;;;;;;5346635;26;20004;-58
2024/04/10 06:43:27;;;;;;;5.35;1.98;;;;;;;;;;5356849;26;20090;-58
2024/04/10 06:45:57;;;;;;;10.70;2.92;;;;;;;;;;5382574;26;20452;-59
2024/04/10 06:48:27;;;;;;;5.20;2.10;;;;;;;;;;5388499;26;20043;-59
2024/04/10 06:50:56;;;;;;;9.87;2.30;;;;;;;;;;5356301;26;20437;-58
2024/04/10 06:53:23;;;;;;;7.40;1.92;;;;;;;;;;5388104;26;20103;-58
2024/04/10 06:55:58;;;;;;;6.18;2.13;;;;;;;;;;5358414;26;20047;-58
2024/04/10 06:58:26;;;;;;;5.68;1.60;;;;;;;;;;5378695;26;20004;-58
2024/04/10 07:01:00;;;;;;;4.57;2.28;;;;;;;;;;5385027;26;20018;-58
2024/04/10 07:03:27;;;;;;;8.40;2.50;;;;;;;;;;5383632;26;20477;-62
2024/04/10 07:06:16;;;;;;;8.82;2.25;;;;;;;;;;5390231;26;20007;-58
2024/04/10 07:08:44;;;;;;;6.47;1.85;;;;;;;;;;5364565;26;19995;-58
2024/04/10 07:11:12;;;;;;;5.85;1.92;;;;;;;;;;5382583;26;23186;-58
2024/04/10 07:13:39;;;;;;;6.85;2.00;;;;;;;;;;5392027;26;20017;-58
2024/04/10 07:16:07;;;;;;;9.60;2.13;;;;;;;;;;5358919;26;20000;-58
2024/04/10 07:18:34;;;;;;;7.10;2.50;;;;;;;;;;5396537;26;20032;-58
2024/04/10 07:21:01;;;;;;;7.15;2.08;;;;;;;;;;5386712;26;20022;-58
2024/04/10 07:23:29;;;;;;;10.40;2.60;;;;;;;;;;5394707;26;20745;-58
2024/04/10 07:26:12;;;;;;;12.13;2.83;;;;;;;;;;5394198;26;20032;-58
2024/04/10 07:28:59;;;;;;;4.28;1.77;;;;;;;;;;5390048;26;20017;-61
2024/04/10 07:31:39;;;;;;;8.70;2.42;;;;;;;;;;5379944;26;20012;-63
2024/04/10 07:34:07;;;;;;;8.52;2.80;;;;;;;;;;5387281;26;20019;-63
2024/04/10 07:36:37;;;;;;;5.18;2.40;;;;;;;;;;5388008;26;20012;-62
2024/04/10 07:39:06;;;;;;;6.82;2.33;;;;;;;;;;5356196;26;20502;-63
2024/04/10 07:41:33;;;;;;;5.40;2.17;;;;;;;;;;5384125;26;20004;-62
2024/04/10 07:44:01;;;;;;;6.10;1.90;;;;;;;;;;5396033;26;20035;-62
2024/04/10 07:46:29;;;;;;;6.35;1.85;;;;;;;;;;5392322;26;20012;-62
2024/04/10 07:48:57;;;;;;;7.82;2.13;;;;;;;;;;5389537;26;20351;-62
2024/04/10 07:51:25;;;;;;;6.80;2.72;;;;;;;;;;5394423;26;20051;-62
2024/04/10 07:53:52;;;;;;;6.97;2.30;;;;;;;;;;5364145;26;19996;-62
2024/04/10 07:56:20;;;;;;;5.35;2.20;;;;;;;;;;5396353;26;20000;-62
2024/04/10 07:58:48;;;;;;;4.45;1.88;;;;;;;;;;5387283;26;20008;-62
2024/04/10 08:01:17;;;;;;;7.38;2.20;;;;;;;;;;5391272;26;20008;-62
2024/04/10 08:03:45;;;;;;;6.63;2.35;;;;;;;;;;5389544;26;20008;-62
2024/04/10 08:06:12;;;;;;;4.85;1.77;;;;;;;;;;5363737;26;20368;-62
2024/04/10 08:08:42;;;;;;;6.78;2.05;;;;;;;;;;5393158;26;20008;-62
2024/04/10 08:11:12;;;;;;;4.90;2.33;;;;;;;;;;5395150;26;20027;-62
2024/04/10 08:13:40;;;;;;;7.75;2.35;;;;;;;;;;5392719;26;20008;-64
2024/04/10 08:16:10;;;;;;;4.95;2.30;;;;;;;;;;5392238;26;20055;-63
2024/04/10 08:18:39;;;;;;;6.13;2.17;;;;;;;;;;5390581;26;20022;-63
2024/04/10 08:21:07;;;;;;;5.00;2.28;;;;;;;;;;5387066;26;20037;-63
2024/04/10 08:23:35;;;;;;;3.22;1.75;;;;;;;;;;5393860;26;20040;-63
2024/04/10 08:26:09;;;;;;;7.53;2.10;;;;;;;;;;5363897;26;20014;-62
2024/04/10 08:28:40;;;;;;;6.57;2.00;;;;;;;;;;5362311;26;20017;-63
2024/04/10 08:31:07;;;;;;;6.30;2.13;;;;;;;;;;5393312;26;20047;-62
2024/04/10 08:33:34;;;;;;;10.10;2.63;;;;;;;;;;5391138;26;20018;-68
2024/04/10 08:36:02;;;;;;;9.30;2.67;;;;;;;;;;5391819;26;20382;-63
2024/04/10 08:38:29;;;;;;;8.48;2.53;;;;;;;;;;5390784;26;20408;-62
2024/04/10 08:40:58;;;;;;;9.13;2.67;;;;;;;;;;5392854;26;20035;-62
2024/04/10 08:43:26;;;;;;;9.70;2.83;;;;;;;;;;5393907;26;20019;-62
2024/04/10 08:45:55;;;;;;;6.00;2.10;;;;;;;;;;5388767;26;20008;-62
2024/04/10 08:48:22;;;;;;;6.88;2.20;;;;;;;;;;5376950;26;20007;-62
2024/04/10 08:50:50;;;;;;;4.55;2.15;;;;;;;;;;5387635;26;20598;-62
2024/04/10 08:53:17;;;;;;;6.97;2.10;;;;;;;;;;5392685;26;20039;-62
2024/04/10 08:55:46;;;;;;;4.43;2.25;;;;;;;;;;5392804;26;20058;-63
2024/04/10 08:58:13;;;;;;;8.60;2.42;;;;;;;;;;5383172;26;20022;-63
2024/04/10 09:00:44;;;;;;;8.40;2.67;;;;;;;;;;5393171;26;20361;-63
2024/04/10 09:03:12;;;;;;;7.55;2.00;;;;;;;;;;5393489;26;20010;-62
2024/04/10 09:05:39;;;;;;;4.07;1.90;;;;;;;;;;5393079;26;20451;-63
2024/04/10 09:08:07;;;;;;;6.75;2.10;;;;;;;;;;5394240;26;20019;-63
2024/04/10 09:10:35;;;;;;;3.92;1.90;;;;;;;;;;5392874;26;20000;-64
2024/04/10 09:13:05;;;;;;;6.18;2.30;;;;;;;;;;5393727;26;20361;-62
2024/04/10 09:15:33;;;;;;;3.80;2.00;;;;;;;;;;5392014;26;20481;-62
2024/04/10 09:18:00;;;;;;;4.38;2.20;;;;;;;;;;5390902;26;20490;-62
2024/04/10 09:20:28;;;;;;;3.88;1.73;;;;;;;;;;5394279;26;20011;-62
2024/04/10 09:23:03;;;;;;;6.60;1.90;;;;;;;;;;5391604;26;20006;-62
2024/04/10 09:25:38;;;;;;;3.42;2.00;;;;;;;;;;5392553;26;19996;-62
2024/04/10 09:28:06;;;;;;;5.00;2.10;;;;;;;;;;5387967;26;20007;-63
2024/04/10 09:30:37;;;;;;;6.30;2.22;;;;;;;;;;5392714;26;20032;-62
2024/04/10 09:33:05;;;;;;;5.40;2.13;;;;;;;;;;5392753;26;20006;-62
2024/04/10 09:35:34;;;;;;;5.10;2.40;;;;;;;;;;5394037;26;20036;-63
2024/04/10 09:38:02;;;;;;;3.90;2.03;;;;;;;;;;5383841;26;20004;-63
2024/04/10 09:40:30;;;;;;;6.05;2.20;;;;;;;;;;5385617;26;20008;-59
2024/04/10 09:43:04;;;;;;;4.47;2.08;;;;;;;;;;5391750;26;20036;-59
2024/04/10 09:45:33;;;;;;;2.67;1.88;;;;;;;;;;5387657;26;20003;-59
2024/04/10 09:48:05;;;;;;;8.30;2.17;;;;;;;;;;5382757;26;20008;-60
2024/04/10 09:50:32;;;;;;;;;;;;;;;;;;5394279;26;20018;-59
2024/04/10 09:53:00;;;;;;;8.07;2.33;;;;;;;;;;5393604;26;19958;-59
2024/04/10 09:55:29;;;;;;;4.80;2.20;;;;;;;;;;5385429;26;20000;-58
2024/04/10 09:57:57;;;;;;;5.45;2.17;;;;;;;;;;5393294;26;20051;-58
2024/04/10 10:00:24;;;;;;;6.85;2.40;;;;;;;;;;5393195;26;20006;-58
2024/04/10 10:03:02;;;;;;;4.38;1.95;;;;;;;;;;5388055;26;20754;-58
2024/04/10 10:05:29;;;;;;;5.65;2.50;;;;;;;;;;5387908;26;20008;-58
2024/04/10 10:08:23;;;;;;;5.28;2.25;;;;;;;;;;5393680;26;20789;-58
2024/04/10 10:10:52;;;;;;;5.22;2.47;;;;;;;;;;5383550;26;20019;-58
2024/04/10 10:13:26;;;;;;;5.43;2.15;;;;;;;;;;5393178;26;20075;-58
2024/04/10 10:16:00;;;;;;;7.60;2.35;;;;;;;;;;5392888;26;20641;-58
2024/04/10 10:18:28;;;;;;;6.00;2.40;;;;;;;;;;5384890;26;20003;-58
2024/04/10 10:21:02;;;;;;;6.68;2.33;;;;;;;;;;5380317;26;20059;-58
2024/04/10 10:23:29;;;;;;;7.68;2.42;;;;;;;;;;5361706;26;20003;-61
2024/04/10 10:25:56;;;;;;;6.18;2.58;;;;;;;;;;5393004;26;20018;-61
2024/04/10 10:28:24;;;;;;;4.85;2.35;;;;;;;;;;5385969;26;20043;-61
2024/04/10 10:30:51;;;;;;;6.35;2.55;;;;;;;;;;5379865;26;20382;-61
2024/04/10 10:33:19;;;;;;;14.43;3.20;;;;;;;;;;5380782;26;20018;-61
2024/04/10 10:35:46;;;;;;;8.25;2.88;;;;;;;;;;5375552;26;20017;-61
2024/04/10 10:38:16;;;;;;;7.82;2.63;;;;;;;;;;5367985;26;20004;-62
2024/04/10 10:40:43;;;;;;;10.80;2.75;;;;;;;;;;5383233;26;20021;-62
2024/04/10 10:43:11;;;;;;;6.80;2.25;;;;;;;;;;5391669;26;20364;-62
2024/04/10 10:45:38;;;;;;;6.72;2.40;;;;;;;;;;5388373;26;20008;-62
2024/04/10 10:48:07;;;;;;;6.47;2.30;;;;;;;;;;5389653;26;20022;-62
2024/04/10 10:50:34;;;;;;;6.28;2.45;;;;;;;;;;5379711;26;20022;-62
2024/04/10 10:54:35;;;;;;;5.20;2.05;;;;;;;;;;5467442;25;20320;-61
2024/04/10 10:57:03;;;;;;;5.10;2.33;;;;;;;;;;5464097;26;20026;-61
2024/04/10 10:59:30;;;;;;;5.40;1.90;;;;;;;;;;5459422;26;20027;-61
2024/04/10 11:01:58;;;;;;;5.43;2.42;;;;;;;;;;5456691;26;20478;-61
2024/04/10 11:04:26;;;;;;;6.07;1.88;;;;;;;;;;5463120;26;19998;-61
2024/04/10 11:06:53;;;;;;;5.97;2.53;;;;;;;;;;5446912;26;20007;-61
2024/04/10 11:09:22;;;;;;;5.53;2.13;;;;;;;;;;5451345;26;20007;-65
2024/04/10 11:11:57;;;;;;;4.40;2.13;;;;;;;;;;5459800;26;20038;-65
2024/04/10 11:14:24;;;;;;;5.07;1.73;;;;;;;;;;5455740;26;19995;-65
2024/04/10 11:17:03;;;;;;;4.97;2.30;;;;;;;;;;5454857;26;20031;-66
2024/04/10 11:19:33;;;;;;;5.35;2.47;;;;;;;;;;5464483;26;20026;-61
2024/04/10 11:22:02;;;;;;;7.00;2.65;;;;;;;;;;5451032;26;20317;-61
2024/04/10 11:24:29;;;;;;;10.00;2.20;;;;;;;;;;5457315;26;20057;-61
2024/04/10 11:26:57;;;;;;;5.78;1.88;;;;;;;;;;5445250;26;20002;-61
2024/04/10 11:29:24;;;;;;;8.50;2.22;;;;;;;;;;5460178;26;20373;-61
2024/04/10 11:31:51;;;;;;;7.22;1.98;;;;;;;;;;5461515;26;20013;-61
2024/04/10 11:34:18;;;;;;;2.88;1.60;;;;;;;;;;5451432;26;20034;-61
2024/04/10 11:36:46;;;;;;;5.50;2.10;;;;;;;;;;5461394;26;20468;-61
2024/04/10 11:39:13;;;;;;;4.60;2.28;;;;;;;;;;5458391;26;20986;-61
2024/04/10 11:41:40;;;;;;;5.20;2.00;;;;;;;;;;5465388;26;20026;-61
2024/04/10 11:44:07;;;;;;;4.15;1.65;;;;;;;;;;5459897;26;20476;-61
2024/04/10 11:46:35;;;;;;;5.90;2.10;;;;;;;;;;5449832;26;20004;-61
2024/04/10 11:49:02;;;;;;;4.07;1.92;;;;;;;;;;5451213;26;20450;-60
2024/04/10 11:51:30;;;;;;;5.38;1.73;;;;;;;;;;5442565;26;20011;-61
2024/04/10 11:53:57;;;;;;;6.63;1.70;;;;;;;;;;5452012;26;20770;-61
2024/04/10 11:56:24;;;;;;;3.50;1.80;;;;;;;;;;5452999;26;20021;-61
2024/04/10 11:58:52;;;;;;;8.07;2.13;;;;;;;;;;5455054;26;20002;-60
2024/04/10 12:01:20;;;;;;;4.47;1.90;;;;;;;;;;5459470;26;20031;-61
2024/04/10 12:03:47;;;;;;;3.92;2.00;;;;;;;;;;5454499;26;19999;-61
2024/04/10 12:06:14;;;;;;;4.65;2.20;;;;;;;;;;5443249;26;20481;-60
2024/04/10 12:08:41;;;;;;;4.13;1.80;;;;;;;;;;5449315;26;20034;-61
2024/04/10 12:11:08;;;;;;;4.30;2.00;;;;;;;;;;5441508;26;20505;-60
2024/04/10 12:13:40;;;;;;;5.90;1.65;;;;;;;;;;5448113;26;19999;-60
2024/04/10 12:16:08;;;;;;;6.55;2.35;;;;;;;;;;5448197;26;20034;-61
2024/04/10 12:18:35;;;;;;;2.90;1.63;;;;;;;;;;5437475;26;20054;-60
2024/04/10 12:21:03;;;;;;;3.38;1.60;;;;;;;;;;5445791;26;20025;-60
2024/04/10 12:23:30;;;;;;;4.85;1.63;;;;;;;;;;5447427;26;20027;-60
2024/04/10 12:25:59;;;;;;;4.25;1.73;;;;;;;;;;5448753;26;20098;-60
2024/04/10 12:28:27;;;;;;;3.50;1.67;;;;;;;;;;5446755;26;20042;-60
2024/04/10 12:30:56;;;;;;;3.85;1.50;;;;;;;;;;5449379;26;20026;-60
2024/04/10 12:33:23;;;;;;;3.60;1.70;;;;;;;;;;5449299;26;19998;-60
2024/04/10 12:38:36;;;;;;;4.28;1.70;;;;;;;;;;5448707;26;20027;-60
2024/04/10 12:41:06;;;;;;;3.88;1.75;;;;;;;;;;5448334;26;20030;-61
2024/04/10 12:43:33;;;;;;;4.65;1.83;;;;;;;;;;5448406;26;20036;-61
2024/04/10 12:46:00;;;;;;;2.92;1.60;;;;;;;;;;5421851;26;20013;-61
2024/04/10 12:48:28;;;;;;;4.63;2.10;;;;;;;;;;5445165;26;20017;-60
2024/04/10 12:50:55;;;;;;;3.83;1.63;;;;;;;;;;5418993;26;20013;-60
2024/04/10 12:53:22;;;;;;;3.35;1.80;;;;;;;;;;5433505;26;20085;-60
2024/04/10 12:55:53;;;;;;;3.67;2.10;;;;;;;;;;5425365;26;20017;-60
2024/04/10 12:58:20;;;;;;;4.57;2.20;;;;;;;;;;5432874;26;20006;-61
2024/04/10 13:00:50;;;;;;;6.13;1.92;;;;;;;;;;5434518;26;20013;-60
2024/04/10 13:03:21;;;;;;;3.63;1.58;;;;;;;;;;5447671;26;20047;-61
2024/04/10 13:05:54;;;;;;;2.95;1.63;;;;;;;;;;5426593;26;20013;-61
2024/04/10 13:08:21;;;;;;;5.13;1.70;;;;;;;;;;5436681;26;20381;-60
2024/04/10 13:10:49;;;;;;;4.10;1.48;;;;;;;;;;5447304;26;19995;-61
2024/04/10 13:13:16;;;;;;;2.70;1.70;;;;;;;;;;5438459;26;20006;-60
2024/04/10 13:15:44;;;;;;;3.50;1.30;;;;;;;;;;5448426;26;20030;-61
2024/04/10 13:18:11;;;;;;;4.68;1.63;;;;;;;;;;5442491;26;20019;-60
2024/04/10 13:20:39;;;;;;;3.50;1.65;;;;;;;;;;5439860;26;20007;-60
2024/04/10 13:23:08;;;;;;;3.75;1.30;;;;;;;;;;5445211;26;20043;-60
2024/04/10 13:25:35;;;;;;;5.03;1.58;;;;;;;;;;5442908;26;20031;-60
2024/04/10 13:28:02;;;;;;;3.97;1.58;;;;;;;;;;5444863;26;20031;-60
2024/04/10 13:30:30;;;;;;;4.22;2.13;;;;;;;;;;5442603;26;20006;-61
2024/04/10 13:32:57;;;;;;;4.72;1.45;;;;;;;;;;5442714;26;20038;-60
2024/04/10 13:35:25;;;;;;;5.93;1.50;;;;;;;;;;5441531;26;20006;-60
2024/04/10 13:37:52;;;;;;;3.40;1.60;;;;;;;;;;5442952;26;20025;-61
2024/04/10 13:40:21;;;;;;;3.13;1.55;;;;;;;;;;5442454;26;23207;-60
2024/04/10 13:42:48;;;;;;;2.22;1.50;;;;;;;;;;5436062;26;20007;-61
2024/04/10 13:45:16;;;;;;;3.03;1.50;;;;;;;;;;5434969;26;20021;-60
2024/04/10 13:47:43;;;;;;;3.85;1.60;;;;;;;;;;5444190;26;20030;-60
2024/04/10 13:50:10;;;;;;;3.85;1.65;;;;;;;;;;5447055;26;20367;-60
2024/04/10 13:52:37;;;;;;;3.65;1.67;;;;;;;;;;5432613;26;20020;-61
2024/04/10 13:55:05;;;;;;;2.30;1.27;;;;;;;;;;5439364;26;20010;-60
2024/04/10 13:57:33;;;;;;;2.20;1.42;;;;;;;;;;5438004;26;20007;-60
2024/04/10 14:00:00;;;;;;;2.33;1.48;;;;;;;;;;5442453;26;20023;-60
2024/04/10 14:02:29;;;;;;;3.92;1.42;;;;;;;;;;5437181;26;20030;-60
2024/04/10 14:04:56;;;;;;;4.55;1.63;;;;;;;;;;5443477;26;20030;-60
2024/04/10 14:07:24;;;;;;;2.60;1.50;;;;;;;;;;5440565;26;19999;-60
2024/04/10 14:09:51;;;;;;;2.28;1.80;;;;;;;;;;5444288;26;20013;-60
2024/04/10 14:12:18;;;;;;;2.97;1.52;;;;;;;;;;5468677;21;20035;-64
2024/04/10 14:14:48;;;;;;;2.40;1.17;;;;;;;;;;5466530;26;19999;-64
2024/04/10 14:17:15;;;;;;;3.05;1.40;;;;;;;;;;5458728;26;20017;-65
2024/04/10 14:19:43;;;;;;;4.07;1.48;;;;;;;;;;5465034;26;20023;-64
2024/04/10 14:22:10;;;;;;;2.90;1.60;;;;;;;;;;5465231;26;20002;-64
2024/04/10 14:24:37;;;;;;;3.95;1.67;;;;;;;;;;5466324;26;20046;-64
2024/04/10 14:27:05;;;;;;;2.28;1.48;;;;;;;;;;5465079;26;20022;-64
2024/04/10 14:29:34;;;;;;;3.40;1.60;;;;;;;;;;5464486;26;20034;-63
2024/04/10 14:32:02;;;;;;;2.65;1.63;;;;;;;;;;5465777;26;20120;-64
2024/04/10 14:34:29;;;;;;;2.85;1.30;;;;;;;;;;5464639;26;19998;-63
2024/04/10 14:36:56;;;;;;;1.63;1.17;;;;;;;;;;5465917;26;20724;-63
2024/04/10 14:39:23;;;;;;;1.90;1.27;;;;;;;;;;5466081;26;20042;-63
2024/04/10 14:41:52;;;;;;;5.00;1.55;;;;;;;;;;5464716;26;20026;-63
2024/04/10 14:44:40;;;;;;;2.90;1.30;;;;;;;;;;5466313;26;20002;-64
2024/04/10 14:47:08;;;;;;;3.95;1.60;;;;;;;;;;5465194;26;20038;-64
2024/04/10 14:49:35;;;;;;;1.27;1.15;;;;;;;;;;5461228;26;20006;-63
2024/04/10 14:52:03;;;;;;;2.08;1.38;;;;;;;;;;5464321;26;20006;-63
2024/04/10 14:54:30;;;;;;;3.28;1.38;;;;;;;;;;5458749;26;20010;-63
2024/04/10 14:56:59;;;;;;;2.72;1.20;;;;;;;;;;5464947;26;20021;-64